Time;durP1;ratioP1;P1;durP2;ratioP2;P2;SDS_P1;SDS_P2;PMS_P1;PMS_P2;Temp;Humidity;BMP_temperature;BMP_pressure;BME280_temperature;BME280_humidity;BME280_pressure;Samples;Min_cycle;Max_cycle;Signal;HPM_P1;HPM_P2
2022/05/23 00:02:18;;;;;;;6.22;4.75;;;;;;;17.16;78.94;94040.94;5055305;28;20665;-62
2022/05/23 00:04:44;;;;;;;6.20;4.90;;;;;;;17.09;79.79;94034.94;5074156;23;20232;-61
2022/05/23 00:07:22;;;;;;;11.43;7.43;;;;;;;17.05;80.63;94031.16;5072072;28;20642;-62
2022/05/23 00:09:49;;;;;;;10.32;5.85;;;;;;;16.99;81.28;94035.25;5053318;28;20296;-66
2022/05/23 00:12:14;;;;;;;7.45;5.75;;;;;;;16.94;81.58;94040.16;5053219;28;20185;-65
2022/05/23 00:14:41;;;;;;;7.45;5.65;;;;;;;16.86;82.48;94035.13;5052960;28;20648;-65
2022/05/23 00:17:07;;;;;;;8.20;5.13;;;;;;;16.79;82.78;94036.81;5052973;28;20296;-62
2022/05/23 00:19:32;;;;;;;7.88;5.07;;;;;;;16.73;83.37;94040.13;5068410;28;20225;-65
2022/05/23 00:21:57;;;;;;;5.53;4.95;;;;;;;16.73;83.56;94046.06;5051872;28;20181;-64
2022/05/23 00:24:23;;;;;;;6.28;5.45;;;;;;;16.73;83.69;94025.53;5052964;28;20189;-62
2022/05/23 00:26:50;;;;;;;9.18;4.82;;;;;;;16.56;84.89;94033.63;5052958;28;20567;-65
2022/05/23 00:29:16;;;;;;;7.40;5.32;;;;;;;16.62;85.07;94030.34;5051535;28;20686;-63
2022/05/23 00:35:17;;;;;;;7.03;5.72;;;;;;;16.54;86.05;94028.66;5053001;28;20243;-62
2022/05/23 00:37:11;;;;;;;7.95;5.20;;;;;;;16.60;85.39;94022.81;5052851;28;20243;-61
2022/05/23 00:39:37;;;;;;;5.38;4.55;;;;;;;16.61;85.75;94026.16;5051307;28;20296;-62
2022/05/23 00:44:54;;;;;;;8.82;5.13;;;;;;;16.76;84.31;94035.44;5053000;28;20173;-62
2022/05/23 00:47:23;;;;;;;7.93;5.18;;;;;;;16.84;83.25;94039.66;5067953;28;20272;-61
2022/05/23 00:49:48;;;;;;;5.43;4.63;;;;;;;16.69;84.48;94037.13;5052301;28;20268;-62
2022/05/23 00:52:23;;;;;;;5.82;4.18;;;;;;;16.89;83.78;94039.88;5052115;28;20273;-62
2022/05/23 00:54:51;;;;;;;5.10;4.60;;;;;;;16.92;82.54;94036.16;5067949;28;20225;-64
2022/05/23 00:57:20;;;;;;;7.60;5.10;;;;;;;16.78;83.49;94037.81;5067469;28;20217;-66
2022/05/23 00:59:47;;;;;;;5.28;4.72;;;;;;;16.72;84.08;94039.31;5052310;28;20182;-62
2022/05/23 01:02:15;;;;;;;6.90;4.57;;;;;;;16.74;83.82;94045.09;5052360;28;20509;-65
2022/05/23 01:04:41;;;;;;;6.97;5.03;;;;;;;16.74;83.39;94039.97;5052422;28;20225;-65
2022/05/23 01:07:08;;;;;;;4.75;4.22;;;;;;;16.87;81.78;94059.03;5051145;28;20196;-61
2022/05/23 01:09:35;;;;;;;6.82;4.35;;;;;;;16.85;82.90;94040.47;5052164;28;20197;-63
2022/05/23 01:12:02;;;;;;;6.95;6.18;;;;;;;16.87;82.46;94046.19;5052376;28;20177;-66
2022/05/23 01:14:46;;;;;;;6.65;4.78;;;;;;;16.86;82.13;94055.66;5052416;28;20209;-63
2022/05/23 01:17:12;;;;;;;6.32;4.80;;;;;;;16.82;81.61;94056.22;5050811;28;20244;-65
2022/05/23 01:19:37;;;;;;;5.03;4.40;;;;;;;16.87;80.76;94051.34;5050637;28;20223;-65
2022/05/23 01:22:13;;;;;;;4.20;3.80;;;;;;;16.96;81.04;94052.78;5052049;28;20185;-61
2022/05/23 01:24:44;;;;;;;4.38;3.78;;;;;;;16.93;80.67;94053.19;5066047;22;20832;-62
2022/05/23 01:27:11;;;;;;;4.35;3.88;;;;;;;16.93;80.89;94042.91;5052034;28;20212;-65
2022/05/23 01:29:37;;;;;;;4.13;3.40;;;;;;;16.95;80.79;94039.16;5052375;28;20206;-65
2022/05/23 01:32:03;;;;;;;5.55;3.70;;;;;;;17.00;79.58;94049.69;5052053;28;20642;-65
2022/05/23 01:34:28;;;;;;;4.30;3.65;;;;;;;17.08;78.98;94059.84;5034141;28;20216;-64
2022/05/23 01:36:54;;;;;;;4.15;3.72;;;;;;;17.02;79.11;94054.63;5051671;28;20204;-64
2022/05/23 01:39:20;;;;;;;3.85;3.55;;;;;;;16.97;79.01;94052.59;5051562;28;20208;-65
2022/05/23 01:41:46;;;;;;;7.15;3.35;;;;;;;17.07;78.11;94057.47;5052054;28;20178;-65
2022/05/23 01:44:12;;;;;;;6.38;3.80;;;;;;;17.03;78.00;94058.81;5052354;28;20656;-61
2022/05/23 01:46:38;;;;;;;4.07;3.67;;;;;;;17.00;77.84;94061.72;5034018;28;20209;-62
2022/05/23 01:49:04;;;;;;;4.68;3.83;;;;;;;16.99;77.63;94055.00;5052004;28;20198;-66
2022/05/23 01:51:29;;;;;;;6.75;4.13;;;;;;;17.05;77.64;94064.56;5051804;28;20665;-65
2022/05/23 01:53:55;;;;;;;4.30;3.90;;;;;;;16.91;78.26;94057.69;5052004;28;20201;-61
2022/05/23 01:56:20;;;;;;;5.28;3.65;;;;;;;16.88;78.45;94058.03;5051633;28;20578;-65
2022/05/23 02:01:30;;;;;;;6.95;4.13;;;;;;;17.01;77.64;94071.03;5051828;28;20232;-65
2022/05/23 02:03:55;;;;;;;5.03;4.25;;;;;;;16.95;78.22;94056.34;5052032;28;20225;-61
2022/05/23 02:06:21;;;;;;;5.13;3.58;;;;;;;16.93;78.54;94045.47;5051569;28;20174;-65
2022/05/23 02:08:47;;;;;;;4.60;3.95;;;;;;;16.90;78.65;94043.25;5050329;28;20633;-66
2022/05/23 02:11:13;;;;;;;7.10;3.88;;;;;;;16.85;78.65;94033.53;5051470;28;20177;-64
2022/05/23 02:13:41;;;;;;;3.88;3.47;;;;;;;16.93;78.06;94050.59;5033894;28;20205;-62
2022/05/23 02:16:07;;;;;;;5.55;3.85;;;;;;;16.81;78.59;94046.94;5033427;28;20198;-62
2022/05/23 02:18:32;;;;;;;5.38;3.75;;;;;;;16.92;77.77;94054.94;5051869;28;20202;-61
2022/05/23 02:20:58;;;;;;;4.53;3.60;;;;;;;16.76;78.57;94047.47;5050220;28;20177;-63
2022/05/23 02:23:24;;;;;;;5.40;3.70;;;;;;;16.68;79.08;94042.44;5050327;28;20206;-62
2022/05/23 02:25:49;;;;;;;4.78;3.50;;;;;;;16.84;78.55;94051.69;5051431;28;20202;-64
2022/05/23 02:28:15;;;;;;;5.90;3.83;;;;;;;16.89;78.69;94049.38;5051699;28;20702;-62
2022/05/23 02:30:41;;;;;;;4.88;3.88;;;;;;;16.87;78.68;94056.47;5051481;28;20174;-62
2022/05/23 02:33:07;;;;;;;9.43;4.55;;;;;;;16.89;78.58;94055.28;5051561;28;20213;-64
2022/05/23 02:35:33;;;;;;;5.53;4.18;;;;;;;16.75;78.40;94038.97;5033392;28;20268;-64
2022/05/23 02:37:58;;;;;;;8.93;4.53;;;;;;;16.55;80.85;94021.75;5058908;22;20696;-61
2022/05/23 02:40:24;;;;;;;5.10;3.88;;;;;;;16.58;80.19;94032.44;5050269;28;20184;-62
2022/05/23 02:42:50;;;;;;;9.27;4.28;;;;;;;16.63;79.60;94042.19;5051318;28;20198;-64
2022/05/23 02:45:15;;;;;;;5.50;4.15;;;;;;;16.52;79.55;94038.31;5051559;28;20189;-63
2022/05/23 02:47:43;;;;;;;5.03;4.40;;;;;;;16.17;81.91;94022.88;5051325;28;20190;-61
2022/05/23 02:50:10;;;;;;;7.45;4.53;;;;;;;16.18;82.67;94032.94;5051701;28;20205;-62
2022/05/23 02:52:36;;;;;;;5.47;4.97;;;;;;;16.19;82.76;94039.69;5054122;28;20619;-63
2022/05/23 02:55:01;;;;;;;6.80;4.45;;;;;;;16.09;83.54;94031.47;5037085;28;20197;-64
2022/05/23 02:57:27;;;;;;;6.40;4.60;;;;;;;16.27;82.59;94038.78;5053041;28;20206;-64
2022/05/23 02:59:52;;;;;;;6.93;4.75;;;;;;;16.21;83.08;94027.47;5053154;28;20330;-63
2022/05/23 03:05:03;;;;;;;10.00;5.28;;;;;;;15.65;85.14;94025.56;5055080;28;20198;-61
2022/05/23 03:07:28;;;;;;;7.78;5.95;;;;;;;15.56;86.45;94042.75;5054353;28;20189;-61
2022/05/23 03:09:53;;;;;;;7.28;5.60;;;;;;;15.66;85.94;94027.13;5054887;28;20182;-65
2022/05/23 03:12:19;;;;;;;11.65;5.60;;;;;;;15.50;87.93;94040.91;5054294;28;20564;-62
2022/05/23 03:14:44;;;;;;;8.38;4.97;;;;;;;15.43;88.89;94032.31;5054751;28;20188;-62
2022/05/23 03:17:10;;;;;;;7.57;5.38;;;;;;;15.27;89.65;94026.53;5054285;28;20564;-66
2022/05/23 03:19:37;;;;;;;6.22;4.95;;;;;;;15.21;89.98;94034.91;5053036;28;20694;-65
2022/05/23 03:27:33;;;;;;;6.60;5.47;;;;;;;15.12;90.08;94011.94;5054483;28;20545;-64
2022/05/23 03:29:59;;;;;;;7.55;5.18;;;;;;;15.32;89.07;94012.22;5052897;28;20185;-61
2022/05/23 03:32:24;;;;;;;6.47;4.93;;;;;;;15.12;89.06;94004.25;5054119;28;20689;-61
2022/05/23 03:34:50;;;;;;;5.85;5.22;;;;;;;15.19;90.32;94016.34;5036294;28;20189;-65
2022/05/23 03:37:16;;;;;;;10.80;5.35;;;;;;;15.26;88.87;94030.03;5054153;28;20217;-65
2022/05/23 03:39:41;;;;;;;5.25;4.60;;;;;;;15.18;88.91;94040.34;5053916;28;20185;-66
2022/05/23 03:42:07;;;;;;;5.75;4.38;;;;;;;15.21;89.73;94024.66;5036040;28;20182;-65
2022/05/23 03:44:34;;;;;;;6.07;4.78;;;;;;;15.26;87.47;94030.84;5053695;28;20197;-63
2022/05/23 03:46:59;;;;;;;5.35;3.85;;;;;;;15.36;88.70;94022.91;5080534;22;20314;-63
2022/05/23 03:49:24;;;;;;;5.00;4.35;;;;;;;15.42;86.12;94020.47;5114521;28;20343;-61
2022/05/23 03:51:50;;;;;;;8.07;4.68;;;;;;;15.30;88.39;94009.03;5113115;28;20191;-65
2022/05/23 03:54:15;;;;;;;8.10;4.07;;;;;;;15.31;88.70;94025.97;5114169;28;20237;-64
2022/05/23 03:56:41;;;;;;;5.00;3.88;;;;;;;15.38;87.96;94028.66;5114161;28;20610;-65
2022/05/23 03:59:06;;;;;;;8.75;4.57;;;;;;;15.51;86.73;94037.38;5112838;28;20191;-62
2022/05/23 04:01:32;;;;;;;4.72;4.22;;;;;;;15.48;88.09;94042.84;5113879;28;20184;-64
2022/05/23 04:03:58;;;;;;;7.57;4.35;;;;;;;15.69;87.96;94030.16;5113819;28;20580;-65
2022/05/23 04:06:24;;;;;;;6.57;4.82;;;;;;;15.90;87.46;94037.13;5113705;28;20240;-67
2022/05/23 04:08:49;;;;;;;6.25;4.90;;;;;;;16.02;86.35;94040.06;5112405;28;20284;-61
2022/05/23 04:11:15;;;;;;;6.38;4.20;;;;;;;15.89;87.30;94025.28;5066572;22;20658;-62
2022/05/23 04:13:40;;;;;;;6.90;4.85;;;;;;;16.01;86.11;94013.63;5053088;28;20675;-64
2022/05/23 04:16:06;;;;;;;7.20;4.90;;;;;;;16.17;84.60;94026.25;5051856;28;20355;-65
2022/05/23 04:18:32;;;;;;;15.50;4.93;;;;;;;16.12;86.10;94014.94;5053263;28;20197;-62
2022/05/23 04:20:58;;;;;;;5.28;4.78;;;;;;;16.19;85.98;94026.84;5053339;28;20272;-65
2022/05/23 04:23:24;;;;;;;7.90;5.50;;;;;;;16.42;83.58;94060.88;5052640;28;20193;-66
2022/05/23 04:25:50;;;;;;;8.20;5.07;;;;;;;16.52;83.21;94056.28;5053507;28;20552;-64
2022/05/23 04:28:17;;;;;;;7.57;5.07;;;;;;;16.56;82.04;94060.06;5053079;28;20202;-66
2022/05/23 04:30:43;;;;;;;9.63;5.50;;;;;;;16.43;82.54;94049.63;5051601;28;20200;-65
2022/05/23 04:35:54;;;;;;;7.80;5.50;;;;;;;16.55;82.48;94037.16;5053362;28;20204;-63
2022/05/23 04:38:20;;;;;;;8.00;5.05;;;;;;;16.37;84.75;94018.78;5051474;28;20193;-62
2022/05/23 04:40:46;;;;;;;6.90;4.90;;;;;;;16.53;85.05;94023.72;5052765;28;20178;-65
2022/05/23 04:43:11;;;;;;;6.75;5.03;;;;;;;16.68;84.25;94035.53;5052646;28;20663;-65
2022/05/23 04:45:38;;;;;;;9.10;6.47;;;;;;;16.68;84.19;94032.97;5052732;28;20570;-61
2022/05/23 04:50:48;;;;;;;8.15;5.93;;;;;;;16.86;84.76;94006.88;5052414;28;20177;-64
2022/05/23 04:53:13;;;;;;;10.75;6.57;;;;;;;16.76;83.69;94017.47;5052243;28;20193;-61
2022/05/23 04:55:41;;;;;;;7.55;5.97;;;;;;;16.98;83.24;94025.16;5052230;28;20186;-65
2022/05/23 04:58:07;;;;;;;9.55;6.57;;;;;;;17.12;82.50;94027.66;5052802;28;20233;-66
2022/05/23 05:00:33;;;;;;;9.10;6.03;;;;;;;17.14;82.54;94028.28;5052047;28;20614;-65
2022/05/23 05:02:59;;;;;;;10.57;6.35;;;;;;;17.29;83.19;94015.38;5052715;28;20304;-66
2022/05/23 05:05:29;;;;;;;13.68;5.95;;;;;;;17.46;83.18;94026.94;5052060;28;20232;-66
2022/05/23 05:07:55;;;;;;;12.65;7.13;;;;;;;17.81;80.31;94068.94;5051344;28;20867;-62
2022/05/23 05:10:23;;;;;;;11.98;7.10;;;;;;;17.85;81.36;94047.00;5052249;28;20660;-65
2022/05/23 05:12:49;;;;;;;10.38;7.07;;;;;;;17.85;80.56;94052.16;5034339;28;20577;-66
2022/05/23 05:15:14;;;;;;;9.40;6.55;;;;;;;17.68;81.54;94028.50;5051365;28;20173;-65
2022/05/23 05:17:40;;;;;;;10.85;6.30;;;;;;;17.63;82.14;94023.16;5051927;28;20231;-61
2022/05/23 05:20:08;;;;;;;12.20;6.72;;;;;;;17.68;81.98;94025.94;5052009;28;20177;-65
2022/05/23 05:22:34;;;;;;;12.13;6.10;;;;;;;17.65;83.00;94005.75;5052379;28;20213;-64
2022/05/23 05:24:59;;;;;;;12.05;6.28;;;;;;;17.65;82.18;94017.81;5050649;28;20185;-62
2022/05/23 05:27:25;;;;;;;8.93;6.38;;;;;;;17.04;84.47;93984.13;5052519;28;20178;-61
2022/05/23 05:29:50;;;;;;;15.45;7.68;;;;;;;17.40;100.00;93987.38;5051860;28;20268;-66
2022/05/23 05:32:18;;;;;;;12.75;6.00;;;;;;;17.75;82.95;94031.94;5070401;22;20298;-65
2022/05/23 05:34:53;;;;;;;10.90;6.68;;;;;;;17.73;82.32;94023.63;5072015;28;20245;-66
2022/05/23 05:37:30;;;;;;;7.68;6.15;;;;;;;17.62;81.93;94011.25;5072163;28;20208;-61
2022/05/23 05:39:58;;;;;;;7.78;6.22;;;;;;;17.54;79.40;94044.81;5070944;28;20565;-63
2022/05/23 05:42:36;;;;;;;12.48;5.45;;;;;;;17.65;76.30;94085.44;5072260;28;20667;-62
2022/05/23 05:45:13;;;;;;;7.32;4.05;;;;;;;17.60;72.80;94126.34;5071966;28;20592;-64
2022/05/23 05:47:43;;;;;;;7.43;3.67;;;;;;;17.58;72.90;94120.59;5072424;28;20215;-62
2022/05/23 05:50:13;;;;;;;6.65;4.43;;;;;;;17.70;72.23;94118.28;5071716;28;20165;-62
2022/05/23 05:52:39;;;;;;;7.32;3.92;;;;;;;17.71;72.67;94105.28;5070630;28;20213;-61
2022/05/23 05:55:07;;;;;;;5.30;3.88;;;;;;;17.78;72.92;94118.16;5071698;28;20181;-62
2022/05/23 05:57:33;;;;;;;20.35;4.20;;;;;;;17.88;73.81;94095.47;5072089;28;20218;-62
2022/05/23 05:59:59;;;;;;;9.18;4.72;;;;;;;18.07;74.49;94094.84;5071957;28;20543;-62
2022/05/23 06:02:25;;;;;;;12.05;5.68;;;;;;;18.73;96.64;94014.34;5071997;28;20560;-60
2022/05/23 06:04:50;;;;;;;10.85;4.90;;;;;;;19.07;91.30;94013.41;5071507;28;20177;-64
2022/05/23 06:12:51;;;;;;;11.15;5.60;;;;;;;18.93;78.37;94065.91;5076340;22;20259;-63
2022/05/23 06:15:16;;;;;;;8.35;5.05;;;;;;;18.68;76.42;94077.75;5051785;28;20276;-65
2022/05/23 06:17:42;;;;;;;7.70;4.53;;;;;;;18.82;74.26;94093.06;5051683;28;20205;-63
2022/05/23 06:20:10;;;;;;;14.27;5.03;;;;;;;18.75;74.82;94078.53;5033585;28;20259;-61
2022/05/23 06:22:35;;;;;;;7.75;4.45;;;;;;;18.59;72.30;94099.47;5051547;28;20209;-67
2022/05/23 06:25:02;;;;;;;5.53;3.53;;;;;;;18.66;68.94;94159.53;5051697;28;20716;-64
2022/05/23 06:27:28;;;;;;;5.50;2.25;;;;;;;18.65;64.48;94204.28;5055312;28;20256;-65
2022/05/23 06:29:54;;;;;;;5.50;2.33;;;;;;;18.68;63.88;94194.41;5055042;28;20216;-62
2022/05/23 06:32:20;;;;;;;9.70;2.58;;;;;;;18.68;63.74;94194.41;5055159;28;20238;-61
2022/05/23 06:34:46;;;;;;;2.28;1.95;;;;;;;18.71;64.29;94170.03;5055059;28;20254;-65
2022/05/23 06:37:12;;;;;;;4.80;1.92;;;;;;;18.74;63.30;94173.06;5053618;28;20296;-64
2022/05/23 06:39:38;;;;;;;6.28;2.40;;;;;;;18.85;64.01;94156.25;5054904;28;20250;-63
2022/05/23 06:42:04;;;;;;;6.50;2.00;;;;;;;18.99;62.46;94171.56;5055193;28;20670;-61
2022/05/23 06:44:29;;;;;;;4.53;2.10;;;;;;;19.17;60.62;94210.47;5054813;28;20197;-63
2022/05/23 06:46:55;;;;;;;4.43;2.10;;;;;;;19.22;59.91;94215.88;5054965;28;20240;-65
2022/05/23 06:49:20;;;;;;;5.05;2.05;;;;;;;19.33;58.78;94224.03;5054838;28;20205;-62
2022/05/23 06:51:49;;;;;;;4.55;2.50;;;;;;;19.41;58.69;94222.13;5054880;28;20256;-64
2022/05/23 06:54:17;;;;;;;5.95;2.65;;;;;;;19.45;59.07;94196.72;5054616;28;20704;-64
2022/05/23 06:56:42;;;;;;;3.70;2.50;;;;;;;19.60;58.33;94211.03;5071561;23;20224;-63
2022/05/23 06:59:10;;;;;;;3.08;2.33;;;;;;;19.66;56.84;94236.03;5074483;28;20205;-62
2022/05/23 07:01:35;;;;;;;7.93;2.55;;;;;;;19.70;55.09;94264.81;5074875;28;20189;-61
2022/05/23 07:04:01;;;;;;;5.90;2.20;;;;;;;19.68;54.04;94265.03;5074315;28;20201;-63
2022/05/23 07:14:38;;;;;;;2.97;2.00;;;;;;;19.85;54.54;94234.50;5074495;28;20593;-66
2022/05/23 07:17:05;;;;;;;3.83;1.98;;;;;;;19.91;53.65;94252.59;5074634;28;20713;-64
2022/05/23 07:19:31;;;;;;;2.70;1.92;;;;;;;20.03;53.22;94258.75;5072954;28;20204;-63
2022/05/23 07:21:59;;;;;;;5.22;2.25;;;;;;;20.11;52.97;94275.81;5074714;28;20181;-62
2022/05/23 07:24:26;;;;;;;1.98;1.63;;;;;;;20.17;52.36;94275.03;5089759;28;20205;-63
2022/05/23 07:26:54;;;;;;;3.45;2.08;;;;;;;20.26;53.16;94252.44;5089820;28;20193;-66
2022/05/23 07:29:22;;;;;;;5.65;2.28;;;;;;;20.25;52.85;94251.66;5073958;28;20204;-64
2022/05/23 07:31:48;;;;;;;4.75;2.50;;;;;;;20.24;53.07;94246.69;5074294;28;20185;-63
2022/05/23 07:34:13;;;;;;;8.05;2.58;;;;;;;20.31;53.34;94235.34;5066948;22;20606;-66
2022/05/23 07:36:39;;;;;;;4.85;2.03;;;;;;;20.27;53.18;94229.00;5053390;28;20206;-61
2022/05/23 07:39:04;;;;;;;7.47;2.30;;;;;;;20.34;53.15;94236.75;5053398;28;20212;-62
2022/05/23 07:41:30;;;;;;;3.28;2.00;;;;;;;20.38;52.84;94232.78;5053737;28;20189;-62
2022/05/23 07:43:55;;;;;;;3.55;1.85;;;;;;;20.42;53.12;94226.22;5054199;28;20762;-66
2022/05/23 07:46:21;;;;;;;2.67;1.90;;;;;;;20.45;52.17;94249.03;5053689;28;20166;-63
2022/05/23 07:48:49;;;;;;;2.10;1.70;;;;;;;20.52;53.12;94221.44;5053840;28;20225;-64
2022/05/23 07:51:17;;;;;;;4.57;2.15;;;;;;;20.55;51.25;94265.75;5053550;28;20627;-63
2022/05/23 08:01:57;;;;;;;4.38;1.90;;;;;;;20.78;47.56;94329.91;5053601;28;20713;-61
2022/05/23 08:04:22;;;;;;;4.55;2.22;;;;;;;20.83;47.51;94323.16;5053304;28;20193;-65
2022/05/23 08:06:48;;;;;;;5.05;2.50;;;;;;;20.96;48.79;94293.91;5053523;28;20181;-64
2022/05/23 08:09:15;;;;;;;8.30;2.50;;;;;;;21.17;47.99;94321.34;5053182;28;20197;-67
2022/05/23 08:11:44;;;;;;;5.05;1.98;;;;;;;21.11;46.74;94351.38;5053337;28;20192;-64
2022/05/23 08:14:11;;;;;;;2.92;1.90;;;;;;;21.15;47.33;94321.53;5053257;28;20210;-63
2022/05/23 08:16:37;;;;;;;3.72;1.75;;;;;;;21.36;47.09;94321.28;5035193;28;20197;-63
2022/05/23 08:19:07;;;;;;;3.85;2.20;;;;;;;21.40;48.17;94294.03;5035461;28;20282;-62
2022/05/23 08:21:33;;;;;;;2.72;1.65;;;;;;;21.35;46.41;94348.16;5053050;28;20178;-62
2022/05/23 08:23:59;;;;;;;2.88;1.88;;;;;;;21.31;46.40;94323.69;5053308;28;20267;-61
2022/05/23 08:26:25;;;;;;;4.15;2.08;;;;;;;21.28;46.28;94331.06;5035007;28;20170;-63
2022/05/23 08:28:51;;;;;;;2.33;1.70;;;;;;;21.24;46.98;94315.16;5052612;28;20210;-65
2022/05/23 08:31:18;;;;;;;5.95;2.33;;;;;;;21.20;46.69;94313.97;5034911;28;20183;-65
2022/05/23 08:33:44;;;;;;;6.18;2.53;;;;;;;21.24;46.98;94299.66;5052868;28;20622;-60
2022/05/23 08:36:12;;;;;;;6.78;2.20;;;;;;;21.06;45.09;94346.03;5052843;28;20210;-61
2022/05/23 08:38:38;;;;;;;3.95;2.17;;;;;;;21.07;46.19;94319.16;5053048;28;20292;-62
2022/05/23 08:41:16;;;;;;;4.43;1.70;;;;;;;21.24;45.12;94341.03;5052412;28;20212;-64
2022/05/23 08:44:24;;;;;;;2.38;1.60;;;;;;;21.30;45.11;94329.88;5034782;28;20209;-61
2022/05/23 08:47:01;;;;;;;4.25;1.60;;;;;;;21.59;45.27;94331.19;5052689;28;20269;-61
2022/05/23 08:49:44;;;;;;;4.80;1.35;;;;;;;21.73;44.38;94364.53;5052590;28;20656;-63
2022/05/23 08:52:27;;;;;;;4.25;1.50;;;;;;;21.83;43.76;94381.47;5052629;28;20190;-63
2022/05/23 08:55:11;;;;;;;1.95;1.35;;;;;;;21.80;43.17;94381.84;5050922;28;20659;-64
2022/05/23 08:57:52;;;;;;;3.20;1.92;;;;;;;21.97;43.72;94357.13;5052312;28;20252;-61
2022/05/23 09:00:23;;;;;;;9.40;2.03;;;;;;;21.98;42.74;94394.97;5052455;28;20169;-61
2022/05/23 09:03:23;;;;;;;6.38;1.85;;;;;;;21.68;41.65;94410.97;5052588;28;20572;-61
2022/05/23 09:06:21;;;;;;;1.67;1.58;;;;;;;21.68;42.70;94374.72;5031124;28;20281;-61
2022/05/23 09:08:53;;;;;;;5.95;1.70;;;;;;;21.66;42.40;94366.38;5024461;28;20225;-62
2022/05/23 09:11:26;;;;;;;8.20;1.73;;;;;;;21.95;42.60;94346.19;5051940;28;20656;-62
2022/05/23 09:13:52;;;;;;;2.17;1.80;;;;;;;22.03;41.91;94377.00;5052487;28;20256;-61
2022/05/23 09:16:17;;;;;;;4.82;1.65;;;;;;;21.99;43.21;94330.03;5051921;28;20205;-63
2022/05/23 09:19:05;;;;;;;3.15;1.50;;;;;;;22.06;43.10;94319.66;5019016;28;20636;-62
2022/05/23 09:24:16;;;;;;;3.78;1.80;;;;;;;22.15;43.66;94295.09;5092428;28;20218;-64
2022/05/23 09:26:44;;;;;;;2.67;1.70;;;;;;;21.97;41.98;94344.97;5091968;28;20180;-62
2022/05/23 09:29:09;;;;;;;5.40;1.80;;;;;;;21.93;42.47;94332.66;5092098;28;20577;-64
2022/05/23 09:31:59;;;;;;;7.00;1.80;;;;;;;21.86;42.47;94316.34;5092076;28;20657;-63
2022/05/23 09:34:49;;;;;;;2.90;1.35;;;;;;;21.85;41.99;94345.84;5092138;28;20570;-62
2022/05/23 09:37:22;;;;;;;3.20;2.13;;;;;;;21.71;41.95;94345.84;5092077;28;20608;-61
2022/05/23 09:39:57;;;;;;;1.77;1.63;;;;;;;21.67;42.89;94305.84;5090922;28;20772;-63
2022/05/23 09:48:21;;;;;;;5.28;2.42;;;;;;;21.94;45.00;94234.06;5091983;28;20652;-64
2022/05/23 09:51:01;;;;;;;1.85;1.48;;;;;;;21.89;44.13;94271.94;5092310;28;20566;-61
2022/05/23 09:53:32;;;;;;;3.05;1.90;;;;;;;21.96;43.83;94294.19;5091736;28;20673;-63
2022/05/23 09:56:31;;;;;;;3.03;2.08;;;;;;;21.75;44.03;94278.97;5075347;22;20225;-63
2022/05/23 09:59:00;;;;;;;6.40;2.30;;;;;;;21.68;44.73;94247.13;5051439;28;20221;-63
2022/05/23 10:01:29;;;;;;;4.15;1.77;;;;;;;21.66;44.02;94260.28;5054330;28;20182;-62
2022/05/23 10:03:55;;;;;;;8.93;2.05;;;;;;;21.96;44.25;94257.19;5075352;22;20318;-64
2022/05/23 10:06:33;;;;;;;4.47;2.17;;;;;;;22.45;43.70;94275.34;5075389;28;20204;-62
2022/05/23 10:08:58;;;;;;;1.52;1.42;;;;;;;22.71;42.16;94331.38;5075858;28;20674;-64
2022/05/23 10:11:38;;;;;;;2.17;1.50;;;;;;;22.95;41.71;94349.53;5075473;28;20696;-63
2022/05/23 10:14:06;;;;;;;2.10;1.40;;;;;;;23.29;42.13;94330.06;5075969;28;20216;-62
2022/05/23 10:16:54;;;;;;;6.00;1.58;;;;;;;23.59;42.38;94310.19;5075345;28;20197;-63
2022/05/23 10:19:33;;;;;;;6.85;2.00;;;;;;;23.79;41.45;94333.31;5075483;28;20273;-63
2022/05/23 10:22:24;;;;;;;3.40;2.13;;;;;;;23.78;41.01;94296.16;5075502;28;20183;-63
2022/05/23 10:24:57;;;;;;;3.92;2.20;;;;;;;24.08;40.87;94272.81;5068152;28;20192;-62
2022/05/23 10:27:53;;;;;;;3.80;2.03;;;;;;;24.03;39.75;94275.31;5075259;28;20177;-63
2022/05/23 10:30:21;;;;;;;2.13;1.60;;;;;;;23.87;39.79;94276.69;5075241;28;20677;-64
2022/05/23 10:32:50;;;;;;;6.80;1.80;;;;;;;23.91;39.99;94253.66;5073786;28;20581;-63
2022/05/23 10:35:16;;;;;;;2.10;1.80;;;;;;;24.01;39.04;94262.50;5074950;28;20184;-63
2022/05/23 10:37:44;;;;;;;2.95;1.50;;;;;;;24.15;38.39;94281.31;5075171;28;20273;-63
2022/05/23 10:43:13;;;;;;;1.42;1.23;;;;;;;24.00;38.14;94244.53;5075389;28;20196;-64
2022/05/23 10:45:46;;;;;;;1.58;1.48;;;;;;;24.14;38.65;94206.97;5075026;28;20653;-64
2022/05/23 10:48:36;;;;;;;2.42;1.80;;;;;;;24.53;39.60;94188.16;5075226;28;20301;-65
2022/05/23 10:51:23;;;;;;;4.07;1.17;;;;;;;24.96;38.51;94200.81;5074937;28;20235;-62
2022/05/23 10:54:00;;;;;;;2.22;1.50;;;;;;;25.56;37.77;94216.88;5075304;28;20200;-62
2022/05/23 10:57:03;;;;;;;2.75;1.30;;;;;;;25.79;35.62;94267.06;5074646;28;20211;-63
2022/05/23 10:59:51;;;;;;;2.33;1.60;;;;;;;25.61;34.91;94285.44;5074934;28;20228;-62
2022/05/23 11:02:31;;;;;;;2.55;1.30;;;;;;;25.71;35.21;94248.41;5073274;28;20208;-63
2022/05/23 11:05:15;;;;;;;2.88;1.50;;;;;;;25.67;34.44;94260.31;5074795;28;20180;-61
2022/05/23 11:08:20;;;;;;;4.07;1.30;;;;;;;26.16;35.61;94225.00;5074722;28;20257;-62
2022/05/23 11:10:51;;;;;;;4.15;1.40;;;;;;;26.50;35.57;94219.56;5043784;28;20185;-64
2022/05/23 11:13:25;;;;;;;1.50;1.40;;;;;;;26.87;35.74;94214.63;5089047;28;20296;-62
2022/05/23 11:16:32;;;;;;;1.42;1.33;;;;;;;26.01;33.66;94271.63;5074486;28;20169;-63
2022/05/23 11:19:24;;;;;;;2.38;1.63;;;;;;;25.84;34.07;94236.94;5090174;28;20640;-64
2022/05/23 11:21:53;;;;;;;1.13;1.05;;;;;;;25.54;34.14;94226.72;5074273;28;20248;-64
2022/05/23 11:24:24;;;;;;;2.55;1.35;;;;;;;25.88;35.02;94191.91;5074175;28;20204;-63
2022/05/23 11:26:54;;;;;;;1.25;1.15;;;;;;;26.08;34.60;94200.09;5074479;28;20256;-61
2022/05/23 11:35:10;;;;;;;3.95;1.20;;;;;;;26.42;32.91;94246.03;5074206;28;20172;-66
2022/05/23 11:37:45;;;;;;;3.95;1.63;;;;;;;25.77;33.16;94227.44;5087356;22;20325;-63
2022/05/23 11:40:39;;;;;;;3.40;1.45;;;;;;;25.93;34.99;94162.56;5073957;28;20160;-62
2022/05/23 11:43:10;;;;;;;3.22;1.30;;;;;;;26.24;33.39;94219.41;5074407;28;20362;-61
2022/05/23 11:46:05;;;;;;;3.58;1.70;;;;;;;26.86;35.37;94160.88;5073775;28;20545;-62
2022/05/23 11:49:11;;;;;;;3.75;1.50;;;;;;;26.63;32.92;94240.09;5072592;28;20213;-62
2022/05/23 11:51:38;;;;;;;5.45;1.50;;;;;;;25.91;33.51;94220.13;4992544;28;20203;-62
2022/05/23 11:54:08;;;;;;;1.58;1.15;;;;;;;25.43;34.45;94196.31;4992110;28;20262;-63
2022/05/23 11:56:55;;;;;;;3.03;1.30;;;;;;;25.17;34.58;94189.78;5034124;28;20225;-61
2022/05/23 11:59:23;;;;;;;3.00;1.67;;;;;;;24.54;35.57;94155.97;5073259;28;20235;-65
2022/05/23 12:02:07;;;;;;;4.00;1.33;;;;;;;25.01;34.96;94155.91;5073724;28;20246;-65
2022/05/23 12:04:54;;;;;;;3.42;1.45;;;;;;;25.09;34.70;94194.59;5071979;28;20196;-63
2022/05/23 12:07:36;;;;;;;4.00;1.27;;;;;;;25.01;35.74;94145.50;5040402;22;20244;-65
2022/05/23 12:10:20;;;;;;;5.03;1.30;;;;;;;24.94;35.73;94141.22;5053404;28;20599;-63
2022/05/23 12:12:50;;;;;;;1.92;1.60;;;;;;;25.20;35.18;94165.13;5053343;28;20279;-63
2022/05/23 12:15:43;;;;;;;3.55;1.52;;;;;;;25.61;35.57;94151.88;5053316;28;20178;-65
2022/05/23 12:18:35;;;;;;;3.08;1.63;;;;;;;26.00;34.65;94174.41;5052955;28;20217;-64
2022/05/23 12:21:36;;;;;;;2.28;1.25;;;;;;;25.71;34.65;94167.69;5053540;28;20177;-62
2022/05/23 12:24:23;;;;;;;8.23;1.70;;;;;;;25.38;35.25;94151.94;5046685;28;20660;-65
2022/05/23 12:26:53;;;;;;;1.75;1.50;;;;;;;25.64;34.74;94143.59;5053379;28;20182;-62
2022/05/23 12:29:25;;;;;;;6.40;1.45;;;;;;;26.15;33.92;94179.13;5053153;28;20292;-63
2022/05/23 12:32:26;;;;;;;6.18;1.55;;;;;;;25.66;33.63;94188.41;5053605;28;20185;-62
2022/05/23 12:34:54;;;;;;;2.35;1.40;;;;;;;26.11;34.43;94159.75;5034855;28;20185;-65
2022/05/23 12:37:45;;;;;;;3.65;2.10;;;;;;;26.63;34.23;94169.69;5052743;28;20202;-63
2022/05/23 12:40:21;;;;;;;2.05;1.67;;;;;;;27.13;33.52;94179.25;5052878;28;20181;-64
2022/05/23 12:43:08;;;;;;;3.28;1.73;;;;;;;27.00;33.53;94176.97;5052680;28;20201;-62
2022/05/23 12:45:45;;;;;;;2.15;1.60;;;;;;;26.47;33.09;94196.56;5012618;28;20217;-65
2022/05/23 12:48:26;;;;;;;3.20;2.10;;;;;;;26.32;33.32;94187.75;5052774;28;20289;-64
2022/05/23 12:54:17;;;;;;;1.75;1.55;;;;;;;26.90;33.82;94184.66;5078344;22;20233;-64